createdAt,value
2019-02-04T00:01:29.296Z,6.47
2019-02-04T00:03:56.722Z,6.05
2019-02-04T00:06:24.129Z,5.55
2019-02-04T00:08:51.541Z,5.85
2019-02-04T00:11:18.929Z,5.60
2019-02-04T00:13:46.426Z,5.42
2019-02-04T00:16:13.924Z,4.92
2019-02-04T00:18:41.660Z,5.20
2019-02-04T00:21:09.177Z,4.62
2019-02-04T00:23:36.565Z,5.15
2019-02-04T00:26:04.355Z,4.90
2019-02-04T00:28:31.773Z,5.25
2019-02-04T00:30:59.155Z,5.33
2019-02-04T00:33:26.562Z,5.62
2019-02-04T00:35:54.253Z,5.20
2019-02-04T00:38:21.656Z,5.30
2019-02-04T00:40:49.071Z,5.67
2019-02-04T00:43:16.470Z,5.40
2019-02-04T00:45:43.878Z,5.83
2019-02-04T00:48:11.277Z,5.30
2019-02-04T00:50:38.716Z,6.12
2019-02-04T00:53:06.521Z,5.95
2019-02-04T00:55:33.909Z,6.40
2019-02-04T00:58:01.296Z,5.80
2019-02-04T01:00:29.483Z,5.70
2019-02-04T01:02:56.939Z,6.00
2019-02-04T01:05:24.449Z,6.20
2019-02-04T01:07:51.837Z,6.42
2019-02-04T01:10:20.507Z,8.18
2019-02-04T01:12:48.195Z,6.00
2019-02-04T01:15:15.583Z,5.65
2019-02-04T01:17:42.987Z,5.83
2019-02-04T01:20:12.155Z,6.85
2019-02-04T01:22:39.949Z,6.75
2019-02-04T01:25:08.607Z,7.40
2019-02-04T01:27:35.994Z,7.15
2019-02-04T01:30:04.867Z,6.37
2019-02-04T01:32:32.356Z,7.05
2019-02-04T01:34:59.744Z,6.47
2019-02-04T01:37:27.134Z,7.05
2019-02-04T01:39:54.539Z,6.60
2019-02-04T01:42:22.171Z,7.08
2019-02-04T01:44:49.576Z,6.67
2019-02-04T01:47:16.984Z,8.23
2019-02-04T01:49:44.475Z,7.58
2019-02-04T01:52:11.872Z,7.20
2019-02-04T01:54:39.277Z,8.80
2019-02-04T01:57:06.683Z,8.00
2019-02-04T01:59:34.072Z,7.50
2019-02-04T02:02:01.499Z,7.55
2019-02-04T02:04:28.887Z,7.60
2019-02-04T02:06:56.449Z,7.53
2019-02-04T02:09:24.295Z,9.20
2019-02-04T02:11:51.717Z,8.15
2019-02-04T02:14:19.471Z,9.70
2019-02-04T02:16:47.033Z,8.65
2019-02-04T02:19:14.414Z,9.13
2019-02-04T02:21:41.868Z,8.83
2019-02-04T02:24:09.356Z,7.92
2019-02-04T02:26:36.791Z,8.08
2019-02-04T02:29:04.271Z,10.45
2019-02-04T02:31:31.863Z,9.40
2019-02-04T02:33:59.280Z,8.38
2019-02-04T02:36:26.672Z,9.45
2019-02-04T02:38:54.092Z,9.88
2019-02-04T02:41:21.510Z,9.90
2019-02-04T02:43:48.928Z,10.30
2019-02-04T02:46:16.326Z,10.05
2019-02-04T02:48:44.125Z,10.05
2019-02-04T02:51:11.546Z,10.00
2019-02-04T02:53:38.945Z,9.85
2019-02-04T02:56:06.341Z,9.68
2019-02-04T02:58:33.780Z,11.38
2019-02-04T03:01:01.183Z,10.08
2019-02-04T03:03:28.580Z,11.83
2019-02-04T03:05:56.383Z,10.50
2019-02-04T03:08:23.776Z,11.18
2019-02-04T03:10:51.454Z,10.32
2019-02-04T03:13:18.957Z,11.15
2019-02-04T03:15:46.367Z,10.65
2019-02-04T03:18:13.740Z,11.60
2019-02-04T03:20:41.159Z,12.80
2019-02-04T03:23:08.649Z,12.30
2019-02-04T03:25:36.129Z,12.20
2019-02-04T03:28:03.528Z,12.82
2019-02-04T03:30:32.225Z,11.38
2019-02-04T03:32:59.645Z,12.05
2019-02-04T03:35:27.048Z,11.80
2019-02-04T03:37:54.741Z,10.93
2019-02-04T03:40:23.769Z,12.05
2019-02-04T03:42:51.586Z,11.48
2019-02-04T03:45:19.330Z,11.38
2019-02-04T03:48:04.162Z,12.15
2019-02-04T03:50:23.802Z,13.10
2019-02-04T03:52:54.448Z,11.93
2019-02-04T03:55:26.890Z,11.05
2019-02-04T03:57:54.413Z,11.33
2019-02-04T04:00:28.767Z,11.45
2019-02-04T04:02:56.157Z,11.85
2019-02-04T04:05:23.973Z,12.33
2019-02-04T04:07:53.436Z,12.03
2019-02-04T04:10:20.669Z,11.93
2019-02-04T04:12:48.172Z,11.22
2019-02-04T04:15:21.858Z,10.82
2019-02-04T04:17:49.251Z,12.28
2019-02-04T04:20:17.642Z,12.10
2019-02-04T04:22:45.219Z,12.68
2019-02-04T04:25:18.649Z,13.20
2019-02-04T04:27:46.314Z,15.32
2019-02-04T04:30:15.304Z,13.05
2019-02-04T04:32:42.722Z,13.75
2019-02-04T04:35:10.627Z,14.70
2019-02-04T04:37:38.024Z,14.28
2019-02-04T04:40:06.783Z,15.15
2019-02-04T04:42:34.204Z,14.80
2019-02-04T04:45:01.599Z,15.32
2019-02-04T04:47:29.015Z,14.95
2019-02-04T04:49:56.416Z,15.40
2019-02-04T04:52:24.033Z,14.10
2019-02-04T04:54:51.428Z,16.35
2019-02-04T04:57:18.834Z,17.80
2019-02-04T04:59:46.263Z,16.15
2019-02-04T05:02:13.669Z,17.50
2019-02-04T05:04:41.067Z,19.02
2019-02-04T05:07:08.508Z,18.98
2019-02-04T05:09:36.003Z,18.65
2019-02-04T05:12:03.391Z,20.35
2019-02-04T05:14:30.813Z,19.42
2019-02-04T05:16:58.252Z,21.85
2019-02-04T05:19:25.666Z,22.48
2019-02-04T05:21:53.061Z,23.50
2019-02-04T05:24:20.498Z,23.50
2019-02-04T05:26:47.916Z,22.90
2019-02-04T05:29:15.308Z,23.67
2019-02-04T05:31:42.729Z,23.30
2019-02-04T05:34:10.129Z,24.45
2019-02-04T05:36:37.528Z,22.75
2019-02-04T05:39:06.491Z,27.60
2019-02-04T05:41:36.125Z,26.17
2019-02-04T05:44:03.848Z,26.62
2019-02-04T05:46:31.231Z,27.30
2019-02-04T05:48:58.635Z,26.73
2019-02-04T05:51:26.053Z,27.13
2019-02-04T05:53:53.452Z,26.17
2019-02-04T05:56:20.873Z,28.85
2019-02-04T05:58:48.576Z,27.75
2019-02-04T06:01:16.032Z,29.55
2019-02-04T06:03:43.426Z,31.02
2019-02-04T06:06:10.819Z,29.20
2019-02-04T06:08:38.259Z,29.10
2019-02-04T06:11:05.708Z,29.90
2019-02-04T06:13:33.111Z,31.48
2019-02-04T06:16:00.983Z,30.50
2019-02-04T06:18:28.400Z,33.15
2019-02-04T06:20:55.863Z,31.57
2019-02-04T06:23:23.294Z,32.15
2019-02-04T06:25:50.697Z,40.10
2019-02-04T06:28:21.004Z,32.75
2019-02-04T06:30:48.693Z,33.95
2019-02-04T06:33:16.098Z,32.45
2019-02-04T06:35:43.516Z,47.40
2019-02-04T06:38:11.009Z,35.25
2019-02-04T06:40:38.416Z,31.57
2019-02-04T06:43:05.807Z,34.75
2019-02-04T06:45:33.272Z,34.10
2019-02-04T06:48:00.726Z,32.55
2019-02-04T06:50:28.118Z,35.60
2019-02-04T06:52:55.624Z,32.98
2019-02-04T06:55:27.227Z,32.65
2019-02-04T06:57:54.652Z,34.23
2019-02-04T07:00:22.216Z,34.90
2019-02-04T07:02:49.687Z,32.40
2019-02-04T07:05:17.764Z,34.70
2019-02-04T07:07:48.082Z,33.42
2019-02-04T07:10:16.746Z,33.38
2019-02-04T07:12:44.228Z,32.83
2019-02-04T07:15:11.718Z,34.10
2019-02-04T07:17:39.161Z,32.88
2019-02-04T07:20:08.083Z,32.73
2019-02-04T07:22:35.532Z,32.53
2019-02-04T07:25:04.188Z,32.03
2019-02-04T07:27:31.588Z,31.95
2019-02-04T07:29:59.052Z,31.55
2019-02-04T07:32:26.943Z,30.65
2019-02-04T07:34:55.556Z,31.02
2019-02-04T07:37:22.951Z,30.35
2019-02-04T07:39:50.356Z,30.40
2019-02-04T07:42:17.764Z,30.23
2019-02-04T07:44:46.879Z,33.48
2019-02-04T07:47:14.349Z,30.15
2019-02-04T07:49:41.784Z,27.70
2019-02-04T07:52:09.240Z,28.38
2019-02-04T07:54:39.226Z,26.95
2019-02-04T07:57:06.971Z,25.30
2019-02-04T07:59:34.370Z,27.60
2019-02-04T08:02:01.763Z,26.27
2019-02-04T08:04:29.203Z,23.38
2019-02-04T08:06:56.614Z,23.40
2019-02-04T08:09:24.016Z,21.75
2019-02-04T08:11:51.739Z,25.10
2019-02-04T08:14:19.139Z,22.52
2019-02-04T08:16:46.548Z,20.80
2019-02-04T08:19:13.966Z,19.90
2019-02-04T08:21:41.407Z,20.65
2019-02-04T08:24:08.804Z,18.77
2019-02-04T08:26:36.224Z,18.35
2019-02-04T08:29:04.017Z,20.88
2019-02-04T08:31:31.404Z,22.07
2019-02-04T08:33:58.851Z,20.45
2019-02-04T08:36:26.228Z,18.02
2019-02-04T08:38:53.636Z,18.30
2019-02-04T08:41:21.043Z,17.82
2019-02-04T08:43:48.448Z,16.17
2019-02-04T08:46:15.880Z,16.37
2019-02-04T08:48:43.275Z,16.87
2019-02-04T08:51:10.684Z,16.07
2019-02-04T08:53:41.372Z,16.90
2019-02-04T08:56:08.956Z,16.12
2019-02-04T08:58:39.238Z,16.85
2019-02-04T12:02:01.061Z,11.25
2019-02-04T12:04:48.153Z,10.15
2019-02-04T12:07:15.831Z,10.95
2019-02-04T12:09:43.256Z,10.48
2019-02-04T12:12:12.958Z,9.93
2019-02-04T12:14:40.369Z,9.63
2019-02-04T12:17:07.797Z,10.80
2019-02-04T12:19:37.166Z,10.30
2019-02-04T12:22:06.914Z,10.70
2019-02-04T12:24:35.451Z,10.65
2019-02-04T12:27:05.961Z,11.45
2019-02-04T12:29:33.587Z,10.80
2019-02-04T12:32:00.961Z,10.63
2019-02-04T12:34:28.403Z,10.15
2019-02-04T12:36:55.863Z,11.00
2019-02-04T12:39:23.547Z,11.28
2019-02-04T12:41:50.983Z,11.48
2019-02-04T12:44:18.397Z,11.85
2019-02-04T12:46:45.812Z,13.13
2019-02-04T12:49:13.310Z,13.40
2019-02-04T12:51:40.743Z,11.97
2019-02-04T12:54:08.312Z,12.40
2019-02-04T12:56:36.217Z,12.00
2019-02-04T12:59:03.614Z,11.70
2019-02-04T13:01:30.998Z,11.93
2019-02-04T13:03:58.420Z,11.78
2019-02-04T13:06:25.828Z,11.50
2019-02-04T13:08:53.244Z,12.35
2019-02-04T13:11:20.648Z,11.83
2019-02-04T13:13:48.304Z,11.28
2019-02-04T13:16:15.731Z,11.80
2019-02-04T13:18:43.667Z,10.98
2019-02-04T13:21:11.237Z,12.10
2019-02-04T13:23:38.668Z,11.85
2019-02-04T13:26:06.079Z,11.53
2019-02-04T13:28:33.484Z,11.88
2019-02-04T13:31:01.203Z,10.98
2019-02-04T13:33:34.030Z,12.03
2019-02-04T13:36:01.451Z,11.28
2019-02-04T13:38:28.855Z,11.48
2019-02-04T13:41:07.271Z,11.68
2019-02-04T13:43:27.124Z,12.53
2019-02-04T13:45:58.882Z,11.68
2019-02-04T13:48:30.937Z,11.30
2019-02-04T13:50:58.473Z,11.55
2019-02-04T13:53:27.069Z,12.05
2019-02-04T13:55:55.202Z,12.43
2019-02-04T13:58:25.663Z,11.78
2019-02-04T14:00:53.896Z,11.38
2019-02-04T14:03:22.067Z,12.18
2019-02-04T14:05:49.518Z,11.18
2019-02-04T14:08:17.976Z,11.25
2019-02-04T14:10:46.541Z,11.63
2019-02-04T14:13:16.114Z,11.80
2019-02-04T14:15:45.057Z,11.05
2019-02-04T14:18:14.704Z,11.33
2019-02-04T14:20:43.257Z,11.28
2019-02-04T14:23:12.601Z,10.95
2019-02-04T14:25:40.841Z,12.10
2019-02-04T14:28:09.394Z,10.95
2019-02-04T14:30:38.971Z,11.43
2019-02-04T14:33:08.241Z,11.00
2019-02-04T14:35:36.929Z,11.48
2019-02-04T14:38:05.349Z,11.45
2019-02-04T14:40:34.762Z,10.55
2019-02-04T14:43:10.032Z,11.43
2019-02-04T14:45:46.440Z,10.98
2019-02-04T14:48:22.480Z,10.72
2019-02-04T14:50:52.903Z,11.50
2019-02-04T14:53:31.728Z,11.20
2019-02-04T14:56:01.883Z,10.25
2019-02-04T14:58:31.813Z,9.30
2019-02-04T15:01:02.105Z,9.28
2019-02-04T15:03:34.297Z,8.98
2019-02-04T15:06:22.207Z,9.15
2019-02-04T15:08:57.075Z,9.63
2019-02-04T15:11:29.998Z,9.50
2019-02-04T15:14:03.150Z,8.28
2019-02-04T15:16:41.933Z,9.30
2019-02-04T15:19:14.881Z,9.53
2019-02-04T15:21:47.919Z,10.08
2019-02-04T15:24:18.457Z,10.13
2019-02-04T15:27:03.349Z,9.63
2019-02-04T15:29:33.429Z,9.48
2019-02-04T15:32:12.855Z,10.03
2019-02-04T15:35:03.875Z,8.85
2019-02-04T15:37:25.951Z,8.68
2019-02-04T15:39:58.380Z,9.70
2019-02-04T15:42:37.887Z,9.70
2019-02-04T15:45:12.054Z,9.83
2019-02-04T15:47:44.739Z,9.05
2019-02-04T15:50:18.098Z,10.28
2019-02-04T15:52:47.260Z,9.38
2019-02-04T15:55:16.250Z,9.40
2019-02-04T15:57:44.680Z,8.35
2019-02-04T16:00:13.324Z,9.30
2019-02-04T16:02:43.691Z,10.48
2019-02-04T16:05:12.121Z,9.83
2019-02-04T16:07:39.941Z,10.63
2019-02-04T16:10:13.479Z,10.08
2019-02-04T16:12:42.792Z,9.60
2019-02-04T16:15:12.166Z,9.45
2019-02-04T16:17:43.626Z,10.25
2019-02-04T16:20:16.728Z,9.23
2019-02-04T16:22:57.185Z,10.18
2019-02-04T16:25:15.385Z,10.05
2019-02-04T16:27:43.301Z,9.20
2019-02-04T16:30:14.909Z,9.90
2019-02-04T16:32:43.306Z,8.90
2019-02-04T16:35:13.149Z,9.48
2019-02-04T16:37:42.902Z,10.30
2019-02-04T16:40:12.842Z,9.93
2019-02-04T16:42:41.954Z,10.72
2019-02-04T16:45:12.112Z,8.10
2019-02-04T16:47:40.720Z,10.15
2019-02-04T16:50:17.716Z,9.60
2019-02-04T16:52:48.081Z,9.83
2019-02-04T16:55:16.239Z,9.10
2019-02-04T16:57:44.774Z,8.88
2019-02-04T17:00:14.799Z,8.43
2019-02-04T17:02:43.548Z,8.48
2019-02-04T17:05:14.805Z,10.10
2019-02-04T17:07:43.495Z,10.45
2019-02-04T17:10:15.742Z,8.98
2019-02-04T17:12:43.707Z,9.55
2019-02-04T17:15:12.448Z,8.80
2019-02-04T17:17:41.209Z,9.45
2019-02-04T17:20:13.878Z,9.50
2019-02-04T17:22:42.512Z,9.83
2019-02-04T17:25:11.865Z,9.05
2019-02-04T17:27:40.314Z,8.80
2019-02-04T17:30:10.703Z,9.98
2019-02-04T17:32:41.208Z,8.53
2019-02-04T17:35:09.522Z,8.85
2019-02-04T17:37:37.260Z,9.68
2019-02-04T17:40:06.317Z,8.30
2019-02-04T17:42:34.901Z,8.38
2019-02-04T17:45:02.933Z,7.35
2019-02-04T17:47:30.806Z,8.10
2019-02-04T17:49:59.861Z,7.25
2019-02-04T17:52:28.291Z,7.60
2019-02-04T17:54:57.271Z,8.20
2019-02-04T17:57:26.731Z,8.95
2019-02-04T17:59:55.078Z,7.83
2019-02-04T18:02:24.039Z,7.40
2019-02-04T18:04:51.584Z,7.87
2019-02-04T18:07:20.674Z,7.95
2019-02-04T18:09:48.562Z,8.60
2019-02-04T18:12:17.020Z,7.70
2019-02-04T18:14:47.375Z,8.63
2019-02-04T18:17:15.241Z,9.65
2019-02-04T18:19:44.024Z,9.50
2019-02-04T18:22:12.463Z,7.83
2019-02-04T18:24:42.065Z,8.95
2019-02-04T18:27:10.846Z,8.05
2019-02-04T18:29:38.448Z,9.38
2019-02-04T18:32:07.091Z,9.78
2019-02-04T18:34:36.094Z,9.40
2019-02-04T18:37:05.711Z,8.75
2019-02-04T18:39:34.589Z,9.63
2019-02-04T18:42:02.985Z,10.10
2019-02-04T18:44:31.878Z,9.38
2019-02-04T18:47:01.299Z,8.50
2019-02-04T18:49:30.641Z,9.23
2019-02-04T18:51:58.835Z,9.80
2019-02-04T18:54:28.065Z,11.15
2019-02-04T18:56:56.368Z,10.35
2019-02-04T18:59:25.078Z,9.90
2019-02-04T19:01:54.970Z,9.85
2019-02-04T19:04:23.277Z,8.90
2019-02-04T19:06:52.101Z,9.30
2019-02-04T19:09:21.779Z,9.45
2019-02-04T19:11:48.679Z,10.23
2019-02-04T19:14:16.134Z,10.08
2019-02-04T19:16:43.499Z,10.70
2019-02-04T19:19:10.902Z,10.03
2019-02-04T19:21:38.411Z,11.25
2019-02-04T19:24:09.682Z,10.20
2019-02-04T19:26:34.951Z,11.40
2019-02-04T19:29:02.369Z,9.20
2019-02-04T19:31:29.834Z,10.70
2019-02-04T19:33:57.232Z,10.13
2019-02-04T19:36:24.849Z,10.03
2019-02-04T19:38:52.321Z,10.63
2019-02-04T19:41:19.740Z,10.18
2019-02-04T19:43:47.159Z,10.03
2019-02-04T19:46:14.559Z,10.30
2019-02-04T19:48:41.994Z,10.00
2019-02-04T19:51:09.451Z,10.45
2019-02-04T19:53:37.154Z,9.70
2019-02-04T19:56:04.651Z,9.70
2019-02-04T19:58:32.030Z,10.55
2019-02-04T20:00:59.440Z,10.25
2019-02-04T20:03:26.852Z,9.13
2019-02-04T20:05:54.249Z,8.95
2019-02-04T20:08:21.914Z,10.72
2019-02-04T20:10:49.903Z,9.80
2019-02-04T20:13:17.287Z,10.53
2019-02-04T20:15:45.566Z,8.95
2019-02-04T20:18:13.205Z,9.55
2019-02-04T20:20:42.607Z,9.60
2019-02-04T20:23:09.873Z,8.78
2019-02-04T20:25:37.252Z,9.18
2019-02-04T20:28:06.449Z,9.43
2019-02-04T20:30:45.434Z,10.35
2019-02-04T20:33:04.738Z,9.50
2019-02-04T20:35:32.112Z,9.75
2019-02-04T20:37:59.495Z,9.60
2019-02-04T20:40:27.466Z,9.10
2019-02-04T20:42:54.846Z,9.18
2019-02-04T20:45:22.751Z,10.43
2019-02-04T20:47:50.798Z,9.00
2019-02-04T20:50:19.766Z,9.40
2019-02-04T20:52:47.166Z,8.68
2019-02-04T20:55:14.598Z,9.10
2019-02-04T20:57:42.212Z,8.75
2019-02-04T21:00:17.106Z,8.55
2019-02-04T21:02:44.495Z,9.50
2019-02-04T21:05:11.975Z,8.48
2019-02-04T21:07:39.476Z,9.13
2019-02-04T21:10:08.511Z,8.75
2019-02-04T21:12:37.843Z,9.40
2019-02-04T21:15:07.925Z,7.80
2019-02-04T21:17:37.313Z,8.30
2019-02-04T21:20:08.314Z,9.30
2019-02-04T21:22:37.435Z,8.68
2019-02-04T21:25:06.204Z,9.20
2019-02-04T21:27:33.663Z,8.63
2019-02-04T21:30:01.127Z,9.03
2019-02-04T21:32:28.881Z,8.00
2019-02-04T21:34:56.295Z,8.90
2019-02-04T21:37:23.683Z,7.60
2019-02-04T21:39:51.103Z,8.58
2019-02-04T21:42:18.492Z,7.97
2019-02-04T21:44:45.871Z,7.53
2019-02-04T21:47:13.271Z,8.08
2019-02-04T21:49:40.875Z,7.45
2019-02-04T21:52:08.255Z,8.40
2019-02-04T21:54:35.638Z,8.50
2019-02-04T21:57:03.050Z,7.55
2019-02-04T21:59:30.477Z,7.80
2019-02-04T22:01:57.835Z,7.78
2019-02-04T22:04:25.236Z,7.15
2019-02-04T22:06:53.062Z,7.33
2019-02-04T22:09:20.672Z,8.50
2019-02-04T22:11:48.050Z,7.60
2019-02-04T22:14:15.655Z,6.70
2019-02-04T22:16:43.111Z,8.33
2019-02-04T22:19:10.915Z,8.25
2019-02-04T22:21:38.299Z,9.03
2019-02-04T22:24:05.903Z,8.20
2019-02-04T22:26:34.661Z,8.80
2019-02-04T22:29:02.284Z,8.35
2019-02-04T22:31:29.752Z,8.35
2019-02-04T22:33:57.455Z,8.80
2019-02-04T22:36:25.194Z,8.63
2019-02-04T22:38:52.595Z,8.45
2019-02-04T22:41:19.974Z,8.03
2019-02-04T22:43:47.579Z,8.18
2019-02-04T22:46:15.007Z,8.78
2019-02-04T22:48:42.387Z,8.23
2019-02-04T22:51:09.800Z,8.20
2019-02-04T22:53:37.190Z,8.58
2019-02-04T22:56:05.354Z,8.90
2019-02-04T22:58:32.756Z,8.78
2019-02-04T23:01:01.954Z,8.90
2019-02-04T23:03:29.384Z,9.08
2019-02-04T23:05:56.786Z,8.35
2019-02-04T23:08:24.282Z,8.30
2019-02-04T23:10:51.738Z,7.67
2019-02-04T23:13:19.198Z,8.10
2019-02-04T23:15:46.599Z,8.00
2019-02-04T23:18:14.170Z,8.90
2019-02-04T23:20:41.572Z,8.55
2019-02-04T23:23:08.966Z,8.23
2019-02-04T23:25:43.564Z,7.70
2019-02-04T23:28:05.644Z,8.28
2019-02-04T23:30:33.019Z,9.00
2019-02-04T23:33:00.741Z,8.18
2019-02-04T23:35:28.125Z,8.20
2019-02-04T23:37:55.506Z,7.85
2019-02-04T23:40:22.907Z,7.28
2019-02-04T23:42:50.357Z,7.60
2019-02-04T23:45:17.770Z,7.47
2019-02-04T23:47:45.229Z,7.10
2019-02-04T23:50:13.782Z,7.10
2019-02-04T23:52:41.222Z,7.17
2019-02-04T23:55:09.780Z,7.53
2019-02-04T23:57:37.230Z,7.92
